Cochise — WDD8952 — position and weather

sailwx.info

Track history (hours):
 
Tides and Currents Weather Stations Pressure Air Temp Water Temp Dewpoint Dewpoint Depression Visibility Wind Speed Wind Dir Waves Ship Positions

Cochise

Owner: Sause Bros, Coos Bay, OR. More information available from US FCC via Universal Licensing System and Coast Guard Vessel Documentation Center.

Last reported at 2015-Mar-28 22:33 UTC. Time now 2015-Mar-29 07:28 UTC.
Position N 38°28' W 123°41'.

Length 32 m; draft 4.8 m.

Type: Towing. MMSI: 367304990.

Date/timePositionNaut miles runAvg speedWind from/ knotsBaromVisibWave heightAir tempDewpointWater temp
2015-Mar-28 22:33N 38°28' W 123°41'3 3.3
2015-Mar-28 21:33N 38°25' W 123°38'3 3.2
2015-Mar-28 20:31N 38°23' W 123°35'3 3.1
2015-Mar-28 19:33N 38°21' W 123°32'3 2.6
2015-Mar-28 18:33N 38°19' W 123°30'3 2.6
2015-Mar-28 17:32N 38°17' W 123°29'2 2.5
2015-Mar-28 16:33N 38°15' W 123°27'3 2.6
2015-Mar-28 15:33N 38°13' W 123°24'3 2.8
2015-Mar-28 14:33N 38°11' W 123°22'3 3.3
2015-Mar-28 13:33N 38°09' W 123°19'3 3.5
2015-Mar-28 12:33N 38°06' W 123°16'4 3.6
2015-Mar-28 11:32N 38°03' W 123°13'4 4.2
2015-Mar-28 10:33N 38°00' W 123°10'5 4.8
2015-Mar-28 09:30N 37°57' W 123°05'5 5.6
2015-Mar-28 08:33N 37°54' W 122°59'7 6.7
2015-Mar-28 07:33N 37°51' W 122°52'13 6.6
2015-Mar-28 05:33N 37°46' W 122°36'9 9.2
2015-Mar-28 04:33N 37°50' W 122°25'5 5.0
2015-Mar-28 03:34N 37°55' W 122°25'0 0.4
2015-Mar-28 02:19N 37°55' W 122°25'0 0.0
2015-Mar-28 01:31N 37°55' W 122°25'0 0.0
2015-Mar-28 00:25N 37°55' W 122°25'0 0.0
2015-Mar-27 23:31N 37°55' W 122°25'0 0.0
2015-Mar-27 22:31N 37°55' W 122°25'0 0.0
2015-Mar-27 21:31N 37°55' W 122°25'0 0.0
2015-Mar-27 20:22N 37°55' W 122°25'0 0.0
2015-Mar-27 19:31N 37°55' W 122°25'0 0.0
2015-Mar-27 18:31N 37°55' W 122°25'0 0.0
2015-Mar-27 16:28N 37°55' W 122°25'0 0.0
2015-Mar-27 15:31N 37°55' W 122°25'0 0.2
2015-Mar-27 14:30N 37°55' W 122°25'1 0.6
2015-Mar-27 13:33N 37°55' W 122°25'1 1.1
2015-Mar-27 12:33N 37°54' W 122°25'7 7.3
2015-Mar-27 11:33N 37°46' W 122°23'0 0.0
2015-Mar-27 10:33N 37°46' W 122°23'0 0.0
2015-Mar-27 09:33N 37°46' W 122°23'0 0.0
2015-Mar-27 08:33N 37°46' W 122°23'0 0.0
2015-Mar-27 07:33N 37°46' W 122°23'3 3.0
2015-Mar-27 06:34N 37°49' W 122°23'1010.3
2015-Mar-27 05:34N 37°60' W 122°25'10 9.5
2015-Mar-27 04:33N 38°04' W 122°14'5 2.1
2015-Mar-27 02:21N 38°02' W 122°08'0 0.0
2015-Mar-27 01:28N 38°02' W 122°08'0 0.0
2015-Mar-27 00:28N 38°02' W 122°08'0 0.0
2015-Mar-26 23:28N 38°02' W 122°08'0 0.0
2015-Mar-26 22:22N 38°02' W 122°08'0 0.0
2015-Mar-26 21:22N 38°02' W 122°08'0 0.0
2015-Mar-26 20:28N 38°02' W 122°08'0 0.0
2015-Mar-26 19:16N 38°02' W 122°08'0 0.0
2015-Mar-26 18:28N 38°02' W 122°08'0 0.0
2015-Mar-26 17:28N 38°02' W 122°08'0 0.0
2015-Mar-26 16:28N 38°02' W 122°08'0 0.0
2015-Mar-26 15:22N 38°02' W 122°08'0 0.0
2015-Mar-26 14:28N 38°02' W 122°08'0 0.0
2015-Mar-26 13:28N 38°02' W 122°08'0 0.0
2015-Mar-26 12:28N 38°02' W 122°08'0 0.0
2015-Mar-26 11:28N 38°02' W 122°08'0 0.0
2015-Mar-26 10:16N 38°02' W 122°08'0 0.0
2015-Mar-26 09:28N 38°02' W 122°08'0 0.0
2015-Mar-26 08:16N 38°02' W 122°08'0 0.0
2015-Mar-26 07:28N 38°02' W 122°08'0 0.0
2015-Mar-26 06:28N 38°02' W 122°08'0 0.0
2015-Mar-26 05:28N 38°02' W 122°08'0 0.0
2015-Mar-26 04:28N 38°02' W 122°08'0 0.0
2015-Mar-26 03:28N 38°02' W 122°08'0 0.0
2015-Mar-26 02:28N 38°02' W 122°08'0 0.0
2015-Mar-26 01:28N 38°02' W 122°08'0 0.0
2015-Mar-26 00:28N 38°02' W 122°08'0 0.1
2015-Mar-25 22:23N 38°02' W 122°08'5 5.9
2015-Mar-25 21:31N 38°04' W 122°14'6 6.3
2015-Mar-25 20:33N 38°02' W 122°22'7 6.4
2015-Mar-25 19:31N 37°57' W 122°27'3 2.6
2015-Mar-25 18:33N 37°54' W 122°26'0 0.0
2015-Mar-25 17:33N 37°54' W 122°26'0 0.0
2015-Mar-25 16:33N 37°54' W 122°26'0 0.0
2015-Mar-25 15:33N 37°54' W 122°26'0 0.0
2015-Mar-25 14:33N 37°54' W 122°26'0 0.1
2015-Mar-25 13:33N 37°54' W 122°26'0 0.1
2015-Mar-25 12:33N 37°54' W 122°26'0 0.0
2015-Mar-25 11:33N 37°54' W 122°26'0 0.0
2015-Mar-25 10:24N 37°54' W 122°26'0 0.0
2015-Mar-25 09:33N 37°54' W 122°26'0 0.2
2015-Mar-25 08:33N 37°54' W 122°26'4 4.1
2015-Mar-25 07:34N 37°50' W 122°24'4 3.8
2015-Mar-25 06:33N 37°46' W 122°23'0 0.0
2015-Mar-25 05:34N 37°46' W 122°23'0 0.0
2015-Mar-25 04:33N 37°46' W 122°23'0 0.0
2015-Mar-25 03:33N 37°46' W 122°23'0 0.0
2015-Mar-25 02:33N 37°46' W 122°23'0 0.0
2015-Mar-25 01:33N 37°46' W 122°23'0 0.0
2015-Mar-25 00:33N 37°46' W 122°23'0 0.0
2015-Mar-24 23:33N 37°46' W 122°23'0 0.0
2015-Mar-24 22:33N 37°46' W 122°23'0 0.0
2015-Mar-24 21:33N 37°46' W 122°23'0 0.0
2015-Mar-24 20:33N 37°46' W 122°23'0 0.0
2015-Mar-24 19:33N 37°46' W 122°23'0 0.0
2015-Mar-24 18:33N 37°46' W 122°23'0 0.0
2015-Mar-24 17:33N 37°46' W 122°23'0 0.0
2015-Mar-24 16:33N 37°46' W 122°23'0 0.0
2015-Mar-24 15:30N 37°46' W 122°23'0 0.0
2015-Mar-24 14:33N 37°46' W 122°23'0 0.0
2015-Mar-24 13:33N 37°46' W 122°23'0 0.0
2015-Mar-24 12:33N 37°46' W 122°23'0 0.0
2015-Mar-24 11:30N 37°46' W 122°23'0 0.0
2015-Mar-24 10:33N 37°46' W 122°23'0 0.0
2015-Mar-24 09:33N 37°46' W 122°23'0 0.0
2015-Mar-24 08:33N 37°46' W 122°23'0 0.0
2015-Mar-24 07:33N 37°46' W 122°23'0 0.0
2015-Mar-24 06:33N 37°46' W 122°23'0 0.0
2015-Mar-24 05:33N 37°46' W 122°23'0 0.0
2015-Mar-24 04:33N 37°46' W 122°23'0 0.0
2015-Mar-24 03:33N 37°46' W 122°23'0 0.0
2015-Mar-24 02:33N 37°46' W 122°23'0 0.0
2015-Mar-24 01:30N 37°46' W 122°23'0 0.0
2015-Mar-24 00:33N 37°46' W 122°23'0 0.0
2015-Mar-23 23:33N 37°46' W 122°23'1 1.4
2015-Mar-23 22:33N 37°47' W 122°21'1 0.8
2015-Mar-23 21:33N 37°47' W 122°20'0 0.0
2015-Mar-23 20:33N 37°47' W 122°20'0 0.0
2015-Mar-23 19:33N 37°47' W 122°20'0 0.0
2015-Mar-23 18:33N 37°47' W 122°20'0 0.1
2015-Mar-23 17:33N 37°47' W 122°20'0 0.0
2015-Mar-23 16:33N 37°47' W 122°20'0 0.0
2015-Mar-23 15:33N 37°47' W 122°20'0 0.0
2015-Mar-23 14:33N 37°47' W 122°20'0 0.0
2015-Mar-23 13:33N 37°47' W 122°20'0 0.0
2015-Mar-23 12:33N 37°47' W 122°20'0 0.0
2015-Mar-23 11:33N 37°47' W 122°20'0 0.0
2015-Mar-23 10:33N 37°47' W 122°20'1 0.9
2015-Mar-23 09:34N 37°48' W 122°21'1110.5
2015-Mar-23 08:33N 37°47' W 122°35'1010.1
2015-Mar-23 07:33N 37°41' W 122°45'10 9.6
2015-Mar-23 06:33N 37°36' W 122°55'9 8.7
2015-Mar-23 05:31N 37°28' W 123°02'248 9.2
2015-Mar-22 02:32N 33°55' W 120°26'9 9.0
2015-Mar-22 01:33N 33°54' W 120°16'38 9.1
2015-Mar-21 21:24N 33°47' W 119°31'28 9.9
2015-Mar-21 18:32N 33°39' W 118°58'23 9.5
2015-Mar-21 16:08N 33°38' W 118°31'6 9.6
2015-Mar-21 15:33N 33°38' W 118°24'9 8.7
2015-Mar-21 14:32N 33°42' W 118°15'4 3.6
2015-Mar-21 13:30N 33°45' W 118°17'0 0.0
2015-Mar-21 12:26N 33°45' W 118°17'0 0.1
2015-Mar-21 11:29N 33°45' W 118°17'0 0.0
2015-Mar-21 10:33N 33°45' W 118°17'0 0.0
2015-Mar-21 09:33N 33°45' W 118°17'0 0.0
2015-Mar-21 08:33N 33°45' W 118°17'0 0.0
2015-Mar-21 07:33N 33°45' W 118°17'0 0.0
2015-Mar-21 05:31N 33°45' W 118°17'0 0.0
2015-Mar-21 04:33N 33°45' W 118°17'0 0.0
2015-Mar-21 03:30N 33°45' W 118°17'0 0.0
2015-Mar-21 02:33N 33°45' W 118°17'0 0.0
2015-Mar-21 01:33N 33°45' W 118°17'0 0.0
2015-Mar-21 00:33N 33°45' W 118°17'2 1.7
2015-Mar-20 23:33N 33°44' W 118°16'0 0.0
2015-Mar-20 22:27N 33°44' W 118°16'0 0.0
2015-Mar-20 21:33N 33°44' W 118°16'0 0.0
2015-Mar-20 20:32N 33°44' W 118°16'2 1.8
2015-Mar-20 19:33N 33°45' W 118°17'30 6.0
2015-Mar-20 14:32N 33°16' W 118°09'9 9.1
2015-Mar-20 13:31N 33°13' W 118°19'10 9.2
2015-Mar-20 12:27N 33°11' W 118°30'8 9.1
2015-Mar-20 11:33N 33°09' W 118°40'14 9.1
2015-Mar-20 10:03N 33°05' W 118°56'5 8.7
2015-Mar-20 09:29N 33°04' W 119°01'8 8.6
2015-Mar-20 08:33N 33°02' W 119°10'9 8.6
2015-Mar-20 07:28N 32°59' W 119°21'8 8.6
2015-Mar-20 06:33N 32°57' W 119°30'9 9.1
2015-Mar-20 05:33N 32°55' W 119°41'44 8.9
2015-Mar-20 00:33N 32°44' W 120°32'57 6.2
2015-Mar-19 15:24N 33°39' W 120°48'43 7.3
2015-Mar-19 09:28N 34°18' W 121°12'10 8.0
2015-Mar-19 08:11N 34°27' W 121°18'5 8.1
2015-Mar-19 07:33N 34°31' W 121°21'8 8.3
2015-Mar-19 06:33N 34°39' W 121°25'8 8.4
2015-Mar-19 05:33N 34°46' W 121°30'9 8.4
2015-Mar-19 04:27N 34°54' W 121°35'  
Track history (hours):
 
Tides and Currents Weather Stations Pressure Air Temp Water Temp Dewpoint Dewpoint Depression Visibility Wind Speed Wind Dir Waves Ship Positions

Cochise

Owner: Sause Bros, Coos Bay, OR. More information available from US FCC via Universal Licensing System and Coast Guard Vessel Documentation Center.

Last reported at 2015-Mar-28 22:33 UTC. Time now 2015-Mar-29 07:28 UTC.
Position N 38°28' W 123°41'.

Length 32 m; draft 4.8 m.

Type: Towing. MMSI: 367304990.

Date/timePositionNaut miles runAvg speedWind from/ knotsBaromVisibWave heightAir tempDewpointWater temp
2015-Mar-28 22:33N 38°28' W 123°41'3 3.3
2015-Mar-28 21:33N 38°25' W 123°38'3 3.2
2015-Mar-28 20:31N 38°23' W 123°35'3 3.1
2015-Mar-28 19:33N 38°21' W 123°32'3 2.6
2015-Mar-28 18:33N 38°19' W 123°30'3 2.6
2015-Mar-28 17:32N 38°17' W 123°29'2 2.5
2015-Mar-28 16:33N 38°15' W 123°27'3 2.6
2015-Mar-28 15:33N 38°13' W 123°24'3 2.8
2015-Mar-28 14:33N 38°11' W 123°22'3 3.3
2015-Mar-28 13:33N 38°09' W 123°19'3 3.5
2015-Mar-28 12:33N 38°06' W 123°16'4 3.6
2015-Mar-28 11:32N 38°03' W 123°13'4 4.2
2015-Mar-28 10:33N 38°00' W 123°10'5 4.8
2015-Mar-28 09:30N 37°57' W 123°05'5 5.6
2015-Mar-28 08:33N 37°54' W 122°59'7 6.7
2015-Mar-28 07:33N 37°51' W 122°52'13 6.6
2015-Mar-28 05:33N 37°46' W 122°36'9 9.2
2015-Mar-28 04:33N 37°50' W 122°25'5 5.0
2015-Mar-28 03:34N 37°55' W 122°25'0 0.4
2015-Mar-28 02:19N 37°55' W 122°25'0 0.0
2015-Mar-28 01:31N 37°55' W 122°25'0 0.0
2015-Mar-28 00:25N 37°55' W 122°25'0 0.0
2015-Mar-27 23:31N 37°55' W 122°25'0 0.0
2015-Mar-27 22:31N 37°55' W 122°25'0 0.0
2015-Mar-27 21:31N 37°55' W 122°25'0 0.0
2015-Mar-27 20:22N 37°55' W 122°25'0 0.0
2015-Mar-27 19:31N 37°55' W 122°25'0 0.0
2015-Mar-27 18:31N 37°55' W 122°25'0 0.0
2015-Mar-27 16:28N 37°55' W 122°25'0 0.0
2015-Mar-27 15:31N 37°55' W 122°25'0 0.2
2015-Mar-27 14:30N 37°55' W 122°25'1 0.6
2015-Mar-27 13:33N 37°55' W 122°25'1 1.1
2015-Mar-27 12:33N 37°54' W 122°25'7 7.3
2015-Mar-27 11:33N 37°46' W 122°23'0 0.0
2015-Mar-27 10:33N 37°46' W 122°23'0 0.0
2015-Mar-27 09:33N 37°46' W 122°23'0 0.0
2015-Mar-27 08:33N 37°46' W 122°23'0 0.0
2015-Mar-27 07:33N 37°46' W 122°23'3 3.0
2015-Mar-27 06:34N 37°49' W 122°23'1010.3
2015-Mar-27 05:34N 37°60' W 122°25'10 9.5
2015-Mar-27 04:33N 38°04' W 122°14'5 2.1
2015-Mar-27 02:21N 38°02' W 122°08'0 0.0
2015-Mar-27 01:28N 38°02' W 122°08'0 0.0
2015-Mar-27 00:28N 38°02' W 122°08'0 0.0
2015-Mar-26 23:28N 38°02' W 122°08'0 0.0
2015-Mar-26 22:22N 38°02' W 122°08'0 0.0
2015-Mar-26 21:22N 38°02' W 122°08'0 0.0
2015-Mar-26 20:28N 38°02' W 122°08'0 0.0
2015-Mar-26 19:16N 38°02' W 122°08'0 0.0
2015-Mar-26 18:28N 38°02' W 122°08'0 0.0
2015-Mar-26 17:28N 38°02' W 122°08'0 0.0
2015-Mar-26 16:28N 38°02' W 122°08'0 0.0
2015-Mar-26 15:22N 38°02' W 122°08'0 0.0
2015-Mar-26 14:28N 38°02' W 122°08'0 0.0
2015-Mar-26 13:28N 38°02' W 122°08'0 0.0
2015-Mar-26 12:28N 38°02' W 122°08'0 0.0
2015-Mar-26 11:28N 38°02' W 122°08'0 0.0
2015-Mar-26 10:16N 38°02' W 122°08'0 0.0
2015-Mar-26 09:28N 38°02' W 122°08'0 0.0
2015-Mar-26 08:16N 38°02' W 122°08'0 0.0
2015-Mar-26 07:28N 38°02' W 122°08'0 0.0
2015-Mar-26 06:28N 38°02' W 122°08'0 0.0
2015-Mar-26 05:28N 38°02' W 122°08'0 0.0
2015-Mar-26 04:28N 38°02' W 122°08'0 0.0
2015-Mar-26 03:28N 38°02' W 122°08'0 0.0
2015-Mar-26 02:28N 38°02' W 122°08'0 0.0
2015-Mar-26 01:28N 38°02' W 122°08'0 0.0
2015-Mar-26 00:28N 38°02' W 122°08'0 0.1
2015-Mar-25 22:23N 38°02' W 122°08'5 5.9
2015-Mar-25 21:31N 38°04' W 122°14'6 6.3
2015-Mar-25 20:33N 38°02' W 122°22'7 6.4
2015-Mar-25 19:31N 37°57' W 122°27'3 2.6
2015-Mar-25 18:33N 37°54' W 122°26'0 0.0
2015-Mar-25 17:33N 37°54' W 122°26'0 0.0
2015-Mar-25 16:33N 37°54' W 122°26'0 0.0
2015-Mar-25 15:33N 37°54' W 122°26'0 0.0
2015-Mar-25 14:33N 37°54' W 122°26'0 0.1
2015-Mar-25 13:33N 37°54' W 122°26'0 0.1
2015-Mar-25 12:33N 37°54' W 122°26'0 0.0
2015-Mar-25 11:33N 37°54' W 122°26'0 0.0
2015-Mar-25 10:24N 37°54' W 122°26'0 0.0
2015-Mar-25 09:33N 37°54' W 122°26'0 0.2
2015-Mar-25 08:33N 37°54' W 122°26'4 4.1
2015-Mar-25 07:34N 37°50' W 122°24'4 3.8
2015-Mar-25 06:33N 37°46' W 122°23'0 0.0
2015-Mar-25 05:34N 37°46' W 122°23'0 0.0
2015-Mar-25 04:33N 37°46' W 122°23'0 0.0
2015-Mar-25 03:33N 37°46' W 122°23'0 0.0
2015-Mar-25 02:33N 37°46' W 122°23'0 0.0
2015-Mar-25 01:33N 37°46' W 122°23'0 0.0
2015-Mar-25 00:33N 37°46' W 122°23'0 0.0
2015-Mar-24 23:33N 37°46' W 122°23'0 0.0
2015-Mar-24 22:33N 37°46' W 122°23'0 0.0
2015-Mar-24 21:33N 37°46' W 122°23'0 0.0
2015-Mar-24 20:33N 37°46' W 122°23'0 0.0
2015-Mar-24 19:33N 37°46' W 122°23'0 0.0
2015-Mar-24 18:33N 37°46' W 122°23'0 0.0
2015-Mar-24 17:33N 37°46' W 122°23'0 0.0
2015-Mar-24 16:33N 37°46' W 122°23'0 0.0
2015-Mar-24 15:30N 37°46' W 122°23'0 0.0
2015-Mar-24 14:33N 37°46' W 122°23'0 0.0
2015-Mar-24 13:33N 37°46' W 122°23'0 0.0
2015-Mar-24 12:33N 37°46' W 122°23'0 0.0
2015-Mar-24 11:30N 37°46' W 122°23'0 0.0
2015-Mar-24 10:33N 37°46' W 122°23'0 0.0
2015-Mar-24 09:33N 37°46' W 122°23'0 0.0
2015-Mar-24 08:33N 37°46' W 122°23'0 0.0
2015-Mar-24 07:33N 37°46' W 122°23'0 0.0
2015-Mar-24 06:33N 37°46' W 122°23'0 0.0
2015-Mar-24 05:33N 37°46' W 122°23'0 0.0
2015-Mar-24 04:33N 37°46' W 122°23'0 0.0
2015-Mar-24 03:33N 37°46' W 122°23'0 0.0
2015-Mar-24 02:33N 37°46' W 122°23'0 0.0
2015-Mar-24 01:30N 37°46' W 122°23'0 0.0
2015-Mar-24 00:33N 37°46' W 122°23'0 0.0
2015-Mar-23 23:33N 37°46' W 122°23'1 1.4
2015-Mar-23 22:33N 37°47' W 122°21'1 0.8
2015-Mar-23 21:33N 37°47' W 122°20'0 0.0
2015-Mar-23 20:33N 37°47' W 122°20'0 0.0
2015-Mar-23 19:33N 37°47' W 122°20'0 0.0
2015-Mar-23 18:33N 37°47' W 122°20'0 0.1
2015-Mar-23 17:33N 37°47' W 122°20'0 0.0
2015-Mar-23 16:33N 37°47' W 122°20'0 0.0
2015-Mar-23 15:33N 37°47' W 122°20'0 0.0
2015-Mar-23 14:33N 37°47' W 122°20'0 0.0
2015-Mar-23 13:33N 37°47' W 122°20'0 0.0
2015-Mar-23 12:33N 37°47' W 122°20'0 0.0
2015-Mar-23 11:33N 37°47' W 122°20'0 0.0
2015-Mar-23 10:33N 37°47' W 122°20'1 0.9
2015-Mar-23 09:34N 37°48' W 122°21'1110.5
2015-Mar-23 08:33N 37°47' W 122°35'1010.1
2015-Mar-23 07:33N 37°41' W 122°45'10 9.6
2015-Mar-23 06:33N 37°36' W 122°55'9 8.7
2015-Mar-23 05:31N 37°28' W 123°02'248 9.2
2015-Mar-22 02:32N 33°55' W 120°26'9 9.0
2015-Mar-22 01:33N 33°54' W 120°16'38 9.1
2015-Mar-21 21:24N 33°47' W 119°31'28 9.9
2015-Mar-21 18:32N 33°39' W 118°58'23 9.5
2015-Mar-21 16:08N 33°38' W 118°31'6 9.6
2015-Mar-21 15:33N 33°38' W 118°24'9 8.7
2015-Mar-21 14:32N 33°42' W 118°15'4 3.6
2015-Mar-21 13:30N 33°45' W 118°17'0 0.0
2015-Mar-21 12:26N 33°45' W 118°17'0 0.1
2015-Mar-21 11:29N 33°45' W 118°17'0 0.0
2015-Mar-21 10:33N 33°45' W 118°17'0 0.0
2015-Mar-21 09:33N 33°45' W 118°17'0 0.0
2015-Mar-21 08:33N 33°45' W 118°17'0 0.0
2015-Mar-21 07:33N 33°45' W 118°17'0 0.0
2015-Mar-21 05:31N 33°45' W 118°17'0 0.0
2015-Mar-21 04:33N 33°45' W 118°17'0 0.0
2015-Mar-21 03:30N 33°45' W 118°17'0 0.0
2015-Mar-21 02:33N 33°45' W 118°17'0 0.0
2015-Mar-21 01:33N 33°45' W 118°17'0 0.0
2015-Mar-21 00:33N 33°45' W 118°17'2 1.7
2015-Mar-20 23:33N 33°44' W 118°16'0 0.0
2015-Mar-20 22:27N 33°44' W 118°16'0 0.0
2015-Mar-20 21:33N 33°44' W 118°16'0 0.0
2015-Mar-20 20:32N 33°44' W 118°16'2 1.8
2015-Mar-20 19:33N 33°45' W 118°17'30 6.0
2015-Mar-20 14:32N 33°16' W 118°09'9 9.1
2015-Mar-20 13:31N 33°13' W 118°19'10 9.2
2015-Mar-20 12:27N 33°11' W 118°30'8 9.1
2015-Mar-20 11:33N 33°09' W 118°40'14 9.1
2015-Mar-20 10:03N 33°05' W 118°56'5 8.7
2015-Mar-20 09:29N 33°04' W 119°01'8 8.6
2015-Mar-20 08:33N 33°02' W 119°10'9 8.6
2015-Mar-20 07:28N 32°59' W 119°21'8 8.6
2015-Mar-20 06:33N 32°57' W 119°30'9 9.1
2015-Mar-20 05:33N 32°55' W 119°41'44 8.9
2015-Mar-20 00:33N 32°44' W 120°32'57 6.2
2015-Mar-19 15:24N 33°39' W 120°48'43 7.3
2015-Mar-19 09:28N 34°18' W 121°12'10 8.0
2015-Mar-19 08:11N 34°27' W 121°18'5 8.1
2015-Mar-19 07:33N 34°31' W 121°21'8 8.3
2015-Mar-19 06:33N 34°39' W 121°25'8 8.4
2015-Mar-19 05:33N 34°46' W 121°30'9 8.4
2015-Mar-19 04:27N 34°54' W 121°35'  

Dump ship's entire track history